Terminal Aerodrome Forecast
Issued by NWS Wilmington, OH

Current Version | Previous Version | Text Only | Print | Product List | Glossary Off
Versions: 1 2 3 4 5 6 7 8 9 10 11 12 13 14 15 16 17 18 19 20 21 22 23 24

487
FTUS41 KILN 122331
TAFDAY
TAF
KDAY 122331Z 1300/1324 29011KT P6SM BKN060
     FM130200 29010KT P6SM SCT060
     FM130600 25007KT P6SM BKN120
     FM131400 22013G19KT P6SM BKN080
     FM132100 21012G19KT P6SM -SN BKN040=

USA.gov is the U.S. government's official web portal to all federal, state and local government web resources and services.